Time;durP1;ratioP1;P1;durP2;ratioP2;P2;SDS_P1;SDS_P2;PMS_P1;PMS_P2;Temp;Humidity;BMP_temperature;BMP_pressure;BME280_temperature;BME280_humidity;BME280_pressure;Samples;Min_cycle;Max_cycle;Signal;HPM_P1;HPM_P2
2023/04/20 00:01:25;;;;;;;5.20;2.30;;;6.90;25.70;;;;;;5074188;28;20798;-85
2023/04/20 00:03:52;;;;;;;5.07;2.00;;;6.70;25.80;;;;;;5074556;28;20482;-83
2023/04/20 00:06:21;;;;;;;10.03;3.03;;;6.80;25.60;;;;;;5074213;28;20447;-84
2023/04/20 00:08:48;;;;;;;5.10;2.20;;;6.90;25.70;;;;;;5074356;28;20450;-84
2023/04/20 00:11:15;;;;;;;6.70;2.60;;;6.90;25.60;;;;;;5074284;28;20465;-84
2023/04/20 00:13:42;;;;;;;7.37;3.03;;;6.90;25.70;;;;;;5073788;28;20474;-84
2023/04/20 00:16:10;;;;;;;5.10;1.63;;;6.80;25.60;;;;;;5074013;28;20454;-84
2023/04/20 00:18:37;;;;;;;7.67;3.70;;;7.00;25.70;;;;;;5073986;28;20504;-84
2023/04/20 00:21:05;;;;;;;10.87;3.90;;;7.00;25.30;;;;;;5073884;28;20567;-84
2023/04/20 00:23:36;;;;;;;10.53;2.73;;;7.00;25.70;;;;;;5073722;28;20466;-84
2023/04/20 00:26:03;;;;;;;6.83;3.37;;;7.00;24.60;;;;;;5053855;28;20549;-84
2023/04/20 00:28:30;;;;;;;4.50;1.73;;;7.00;25.70;;;;;;5053863;28;20459;-84
2023/04/20 00:30:57;;;;;;;8.53;3.43;;;7.10;24.60;;;;;;5073290;28;20505;-84
2023/04/20 00:33:27;;;;;;;9.70;3.40;;;7.00;25.70;;;;;;5073276;28;20481;-84
2023/04/20 00:35:55;;;;;;;8.90;4.00;;;7.10;25.30;;;;;;5073528;28;20464;-84
2023/04/20 00:38:22;;;;;;;4.60;1.87;;;7.10;25.80;;;;;;5073316;28;20463;-84
2023/04/20 00:40:52;;;;;;;7.07;3.83;;;7.20;25.10;;;;;;5073455;28;20875;-84
2023/04/20 00:43:21;;;;;;;7.60;3.57;;;7.20;24.70;;;;;;5073470;28;20505;-84
2023/04/20 00:45:50;;;;;;;4.50;2.07;;;7.40;24.80;;;;;;5073576;28;20450;-85
2023/04/20 00:48:18;;;;;;;6.43;2.57;;;7.40;23.70;;;;;;5073371;28;20450;-84
2023/04/20 00:50:46;;;;;;;6.80;3.30;;;7.40;23.20;;;;;;5073837;28;20847;-85
2023/04/20 00:53:13;;;;;;;6.70;2.87;;;7.40;23.20;;;;;;5073158;28;20482;-84
2023/04/20 00:55:43;;;;;;;6.87;2.63;;;7.30;23.60;;;;;;5073353;28;20529;-84
2023/04/20 00:58:15;;;;;;;6.70;2.40;;;7.30;23.90;;;;;;5073342;28;20899;-85
2023/04/20 01:00:43;;;;;;;4.70;1.93;;;7.30;24.40;;;;;;5073225;28;20504;-84
2023/04/20 01:03:10;;;;;;;11.13;3.10;;;7.30;25.20;;;;;;5072751;28;20481;-84
2023/04/20 01:05:37;;;;;;;8.10;3.37;;;7.20;23.70;;;;;;5073065;28;20465;-85
2023/04/20 01:08:05;;;;;;;11.93;3.87;;;7.40;23.70;;;;;;5072803;28;20450;-85
2023/04/20 01:10:32;;;;;;;6.30;3.50;;;7.20;23.60;;;;;;5073526;28;20446;-85
2023/04/20 01:13:00;;;;;;;6.10;2.50;;;7.30;23.90;;;;;;5073138;28;20481;-84
2023/04/20 01:15:28;;;;;;;6.43;3.40;;;7.30;23.30;;;;;;5072957;28;20538;-85
2023/04/20 01:17:58;;;;;;;10.10;4.90;;;7.30;24.00;;;;;;5072422;28;20450;-85
2023/04/20 01:20:27;;;;;;;9.43;3.00;;;7.30;24.50;;;;;;5072648;28;20506;-85
2023/04/20 01:22:56;;;;;;;8.73;3.40;;;7.30;23.70;;;;;;5072218;28;20462;-85
2023/04/20 01:25:29;;;;;;;7.83;3.97;;;7.30;24.00;;;;;;5073125;28;20458;-85
2023/04/20 01:27:56;;;;;;;8.57;3.73;;;7.20;24.50;;;;;;5072779;28;20450;-85
2023/04/20 01:30:23;;;;;;;8.03;3.53;;;7.10;25.70;;;;;;5072462;28;20455;-84
2023/04/20 01:32:50;;;;;;;7.20;3.40;;;6.80;25.50;;;;;;5072520;28;20480;-85
2023/04/20 01:35:27;;;;;;;;;;;;;;;;;;;;;
2023/04/20 01:37:56;;;;;;;7.40;3.60;;;6.80;25.60;;;;;;5072016;28;20477;-85
2023/04/20 01:40:23;;;;;;;7.20;3.40;;;6.60;25.50;;;;;;5072540;28;20478;-85
2023/04/20 01:42:50;;;;;;;8.10;3.93;;;6.70;24.70;;;;;;5071899;28;20478;-85
2023/04/20 01:45:23;;;;;;;8.10;3.70;;;6.70;24.80;;;;;;5072339;28;20470;-85
2023/04/20 01:47:53;;;;;;;9.57;3.40;;;6.70;24.60;;;;;;5072293;28;20458;-85
2023/04/20 01:50:20;;;;;;;10.00;3.80;;;6.90;23.90;;;;;;5071920;28;20486;-84
2023/04/20 01:52:47;;;;;;;13.50;3.93;;;6.90;24.20;;;;;;5072083;28;20457;-84
2023/04/20 01:55:19;;;;;;;11.63;3.97;;;6.90;23.60;;;;;;5072449;28;20443;-85
2023/04/20 01:57:52;;;;;;;10.80;4.50;;;7.00;22.90;;;;;;5071556;28;20451;-85
2023/04/20 02:00:21;;;;;;;8.17;3.37;;;7.00;22.70;;;;;;5071941;28;20477;-85
2023/04/20 02:05:21;;;;;;;6.57;3.00;;;7.00;22.30;;;;;;5157717;23;20489;-85
2023/04/20 02:07:48;;;;;;;8.90;3.00;;;7.30;23.00;;;;;;5072120;28;20447;-85
2023/04/20 02:10:15;;;;;;;11.57;3.40;;;7.00;21.90;;;;;;5071952;28;20481;-85
2023/04/20 02:12:45;;;;;;;13.33;3.07;;;7.00;20.90;;;;;;5071454;28;20477;-85
2023/04/20 02:15:13;;;;;;;8.10;3.60;;;7.10;22.80;;;;;;5052020;28;20452;-85
2023/04/20 02:17:40;;;;;;;7.80;3.50;;;7.00;25.10;;;;;;5051429;28;20505;-85
2023/04/20 02:20:11;;;;;;;7.90;3.83;;;6.90;25.70;;;;;;5050656;28;20498;-85
2023/04/20 02:22:38;;;;;;;10.40;4.33;;;6.80;25.60;;;;;;5051775;28;20458;-85
2023/04/20 02:25:16;;;;;;;9.47;4.23;;;6.80;25.60;;;;;;5052090;28;20455;-85
2023/04/20 02:27:48;;;;;;;7.87;3.60;;;6.80;27.10;;;;;;5051553;28;20458;-85
2023/04/20 02:30:19;;;;;;;5.07;2.10;;;6.80;30.20;;;;;;5052056;28;20532;-85
2023/04/20 02:32:51;;;;;;;5.00;2.20;;;6.60;33.10;;;;;;5051271;28;20459;-85
2023/04/20 02:35:18;;;;;;;8.70;3.33;;;6.70;27.20;;;;;;5051837;28;20455;-85
2023/04/20 02:37:46;;;;;;;6.60;2.50;;;6.80;25.60;;;;;;5051427;28;20513;-85
2023/04/20 02:40:14;;;;;;;7.20;2.60;;;6.80;25.60;;;;;;5051746;28;20555;-85
2023/04/20 02:42:41;;;;;;;7.40;3.03;;;6.80;25.80;;;;;;5051523;28;20475;-85
2023/04/20 02:48:02;;;;;;;6.53;3.10;;;6.80;25.60;;;;;;5047364;28;20514;-85
2023/04/20 02:50:30;;;;;;;7.83;2.70;;;6.80;26.60;;;;;;5051657;28;20443;-85
2023/04/20 02:52:57;;;;;;;5.67;2.43;;;6.70;31.00;;;;;;5051019;28;20547;-84
2023/04/20 02:55:26;;;;;;;7.10;3.60;;;6.60;33.00;;;;;;5051458;28;20459;-85
2023/04/20 02:57:58;;;;;;;7.00;3.23;;;6.50;30.90;;;;;;5051719;28;20447;-85
2023/04/20 03:00:30;;;;;;;6.40;3.53;;;6.60;30.10;;;;;;5051161;28;20501;-85
2023/04/20 03:03:01;;;;;;;6.77;3.53;;;6.50;33.00;;;;;;5051370;28;20538;-85
2023/04/20 03:05:28;;;;;;;13.40;3.87;;;6.50;36.50;;;;;;5051183;28;21032;-85
2023/04/20 03:07:56;;;;;;;12.40;3.80;;;6.40;36.50;;;;;;5051482;28;20521;-84
2023/04/20 03:10:32;;;;;;;6.10;2.77;;;6.50;30.10;;;;;;5053742;28;20482;-85
2023/04/20 03:13:01;;;;;;;8.60;3.40;;;6.60;26.10;;;;;;5055009;28;20491;-85
2023/04/20 03:16:11;;;;;;;7.60;3.60;;;6.70;27.30;;;;;;5055056;28;20448;-86
2023/04/20 03:18:41;;;;;;;7.60;2.90;;;6.80;26.70;;;;;;5055061;28;20455;-84
2023/04/20 03:21:08;;;;;;;7.73;3.37;;;6.90;25.70;;;;;;5054842;28;20527;-85
2023/04/20 03:23:39;;;;;;;6.80;3.40;;;6.90;25.70;;;;;;5045548;28;20498;-85
2023/04/20 03:26:06;;;;;;;13.17;3.70;;;7.10;25.80;;;;;;5054107;28;20851;-85
2023/04/20 03:28:36;;;;;;;7.17;2.87;;;7.10;25.80;;;;;;5048998;28;20866;-85
2023/04/20 03:31:07;;;;;;;8.60;2.80;;;7.00;25.70;;;;;;5036225;28;20449;-85
2023/04/20 03:33:37;;;;;;;17.67;3.20;;;7.10;25.80;;;;;;5036361;28;20973;-85
2023/04/20 03:36:05;;;;;;;66.07;28.67;;;7.20;25.90;;;;;;5051529;28;21138;-86
2023/04/20 03:38:32;;;;;;;7.67;3.93;;;7.20;25.90;;;;;;5054012;28;20443;-83
2023/04/20 03:40:59;;;;;;;6.47;2.77;;;7.10;25.80;;;;;;5053843;28;21056;-85
2023/04/20 03:43:30;;;;;;;10.70;3.30;;;7.00;25.70;;;;;;5041921;28;20487;-85
2023/04/20 03:45:57;;;;;;;8.63;3.27;;;7.00;26.10;;;;;;5054083;28;20479;-85
2023/04/20 03:48:26;;;;;;;14.20;4.20;;;7.10;27.30;;;;;;5054901;28;20448;-84
2023/04/20 03:50:57;;;;;;;7.43;3.40;;;7.10;29.70;;;;;;5054986;28;20448;-84
2023/04/20 03:53:25;;;;;;;8.43;3.63;;;6.90;33.30;;;;;;5054039;28;20471;-84
2023/04/20 03:55:53;;;;;;;7.63;3.20;;;6.90;33.20;;;;;;5053914;28;20454;-84
2023/04/20 03:58:22;;;;;;;6.53;3.13;;;6.90;30.10;;;;;;5053720;28;20676;-85
2023/04/20 04:00:49;;;;;;;6.77;2.77;;;7.00;28.90;;;;;;5054030;28;20494;-83
2023/04/20 04:03:16;;;;;;;5.37;1.70;;;7.00;32.00;;;;;;5054486;28;20471;-82
2023/04/20 04:05:44;;;;;;;8.40;3.20;;;7.00;29.90;;;;;;5053904;28;20459;-84
2023/04/20 04:08:11;;;;;;;5.87;2.60;;;6.90;34.80;;;;;;5054309;28;20455;-84
2023/04/20 04:10:38;;;;;;;5.07;2.23;;;6.90;33.30;;;;;;5038288;28;20454;-84
2023/04/20 04:13:05;;;;;;;9.03;3.90;;;6.90;33.30;;;;;;5053243;28;20827;-85
2023/04/20 04:15:33;;;;;;;6.83;3.37;;;6.90;33.30;;;;;;5053569;28;20455;-84
2023/04/20 04:18:00;;;;;;;7.13;3.00;;;6.80;34.20;;;;;;5053655;28;20542;-84
2023/04/20 04:20:28;;;;;;;5.33;2.10;;;6.80;34.20;;;;;;5053734;28;20479;-84
2023/04/20 04:22:58;;;;;;;7.50;3.03;;;6.80;34.00;;;;;;5053271;28;20474;-84
2023/04/20 04:25:24;;;;;;;6.77;3.00;;;6.80;35.90;;;;;;5053653;28;20452;-84
2023/04/20 04:27:52;;;;;;;6.10;3.03;;;6.80;36.10;;;;;;5042792;28;20456;-84
2023/04/20 04:30:22;;;;;;;10.47;3.50;;;6.80;38.00;;;;;;5053333;28;20510;-85
2023/04/20 04:32:50;;;;;;;9.10;3.90;;;6.60;45.70;;;;;;5038122;28;20951;-84
2023/04/20 04:35:17;;;;;;;15.53;4.40;;;6.50;46.70;;;;;;5053916;28;20453;-84
2023/04/20 04:37:44;;;;;;;9.60;3.80;;;6.40;50.40;;;;;;5053644;28;20520;-85
2023/04/20 04:40:20;;;;;;;9.30;4.27;;;6.40;53.20;;;;;;5053593;28;20451;-84
2023/04/20 04:42:47;;;;;;;10.60;4.30;;;6.20;52.10;;;;;;5043742;28;20477;-85
2023/04/20 04:45:15;;;;;;;9.63;4.40;;;6.20;56.00;;;;;;5052690;28;20525;-84
2023/04/20 04:47:42;;;;;;;7.60;3.20;;;6.10;58.60;;;;;;5053333;28;20482;-77
2023/04/20 04:50:10;;;;;;;8.00;3.50;;;6.00;62.00;;;;;;5053457;28;20534;-86
2023/04/20 04:52:37;;;;;;;8.13;3.60;;;5.90;60.70;;;;;;5052929;28;20447;-85
2023/04/20 04:55:07;;;;;;;13.43;4.83;;;5.90;63.50;;;;;;5053475;28;20451;-86
2023/04/20 04:57:37;;;;;;;9.20;4.77;;;5.80;66.30;;;;;;5053163;28;20451;-85
2023/04/20 05:00:11;;;;;;;6.63;3.80;;;5.80;66.50;;;;;;5053115;28;20475;-85
2023/04/20 05:02:38;;;;;;;8.73;4.30;;;5.80;65.50;;;;;;5053153;28;20453;-85
2023/04/20 05:05:07;;;;;;;8.70;3.80;;;5.80;68.80;;;;;;5052835;28;20467;-84
2023/04/20 05:07:34;;;;;;;9.60;3.30;;;5.80;63.50;;;;;;5037774;28;20456;-85
2023/04/20 05:10:00;;;;;;;9.37;4.90;;;5.80;65.30;;;;;;5051984;28;20444;-86
2023/04/20 05:12:29;;;;;;;7.80;3.67;;;5.80;68.70;;;;;;5048959;28;20448;-85
2023/04/20 05:14:57;;;;;;;10.40;4.53;;;5.80;71.10;;;;;;5052645;28;20468;-86
2023/04/20 05:17:24;;;;;;;7.17;3.57;;;5.80;74.40;;;;;;5052603;28;20458;-86
2023/04/20 05:19:51;;;;;;;7.90;3.60;;;5.90;66.50;;;;;;5034817;28;20459;-85
2023/04/20 05:22:18;;;;;;;9.40;3.40;;;5.90;64.00;;;;;;5052808;28;20490;-86
2023/04/20 05:24:45;;;;;;;8.23;4.53;;;6.10;62.10;;;;;;5052166;28;20558;-86
2023/04/20 05:27:12;;;;;;;10.00;2.97;;;6.30;67.90;;;;;;5050720;28;20467;-86
2023/04/20 05:29:39;;;;;;;5.90;2.80;;;6.30;68.00;;;;;;5052412;28;20447;-87
2023/04/20 05:32:07;;;;;;;12.63;5.40;;;6.30;68.90;;;;;;5052271;28;20825;-85
2023/04/20 05:34:34;;;;;;;12.17;6.43;;;6.30;71.90;;;;;;5051182;28;20546;-86
2023/04/20 05:37:04;;;;;;;14.07;6.80;;;6.20;74.70;;;;;;5050380;28;20955;-82
2023/04/20 05:39:31;;;;;;;12.70;7.30;;;6.20;74.70;;;;;;5054006;28;20447;-82
2023/04/20 05:42:00;;;;;;;12.03;6.23;;;6.30;73.80;;;;;;5051918;28;20471;-91
2023/04/20 05:44:27;;;;;;;10.03;5.97;;;6.30;72.90;;;;;;5053572;28;20978;-81
2023/04/20 05:46:54;;;;;;;11.07;6.20;;;6.30;73.40;;;;;;5052188;28;20447;-83
2023/04/20 05:49:22;;;;;;;10.03;6.37;;;6.30;74.80;;;;;;5047110;28;20449;-81
2023/04/20 05:51:50;;;;;;;12.60;6.23;;;6.40;76.60;;;;;;5031385;28;20478;-81
2023/04/20 05:54:17;;;;;;;10.20;5.20;;;6.40;78.20;;;;;;5039768;28;20563;-81
2023/04/20 05:56:44;;;;;;;17.70;5.90;;;6.40;74.90;;;;;;5051227;28;20447;-81
2023/04/20 05:59:12;;;;;;;13.13;5.40;;;6.40;75.90;;;;;;5051170;28;20458;-81
2023/04/20 06:01:39;;;;;;;10.17;5.30;;;6.50;75.00;;;;;;5046664;28;20884;-82
2023/04/20 06:04:06;;;;;;;15.33;5.60;;;6.50;75.00;;;;;;5040258;28;20486;-81
2023/04/20 06:06:34;;;;;;;12.63;4.63;;;6.60;75.00;;;;;;5051408;28;20495;-81
2023/04/20 06:09:01;;;;;;;10.83;4.40;;;6.60;75.00;;;;;;5051102;28;20458;-81
2023/04/20 06:11:29;;;;;;;16.43;5.40;;;6.60;75.00;;;;;;5051411;28;20485;-81
2023/04/20 06:13:56;;;;;;;13.30;5.90;;;6.70;77.10;;;;;;5050815;28;20471;-82
2023/04/20 06:16:22;;;;;;;9.53;5.90;;;6.70;76.70;;;;;;5051754;28;20490;-81
2023/04/20 06:18:50;;;;;;;10.57;6.80;;;6.80;78.80;;;;;;5050352;28;20535;-81
2023/04/20 06:21:18;;;;;;;10.00;5.33;;;6.80;78.60;;;;;;5051557;28;20624;-81
2023/04/20 06:23:47;;;;;;;18.60;6.80;;;6.90;76.90;;;;;;5051351;28;20550;-80
2023/04/20 06:26:14;;;;;;;16.50;7.20;;;6.90;77.00;;;;;;5049033;28;20451;-82
2023/04/20 06:28:41;;;;;;;20.67;6.53;;;6.90;76.60;;;;;;5050974;28;20939;-81
2023/04/20 06:31:09;;;;;;;9.93;6.43;;;7.00;77.90;;;;;;5051587;28;20473;-81
2023/04/20 06:33:36;;;;;;;10.50;6.80;;;7.10;78.70;;;;;;5050799;28;20470;-81
2023/04/20 06:36:06;;;;;;;15.30;6.50;;;7.10;77.50;;;;;;5051729;28;20849;-82
2023/04/20 06:38:32;;;;;;;10.20;6.50;;;7.20;75.50;;;;;;5051965;28;20461;-82
2023/04/20 06:41:01;;;;;;;10.47;5.63;;;7.30;75.60;;;;;;5051335;28;20455;-82
2023/04/20 06:43:29;;;;;;;10.30;6.80;;;7.40;75.70;;;;;;5049890;28;20601;-81
2023/04/20 06:45:56;;;;;;;12.97;6.83;;;7.50;76.30;;;;;;5052123;28;20959;-81
2023/04/20 06:48:23;;;;;;;8.37;5.13;;;7.50;75.80;;;;;;5041588;28;20458;-81
2023/04/20 06:50:51;;;;;;;15.33;6.97;;;7.40;73.10;;;;;;5035582;28;20802;-81
2023/04/20 06:53:18;;;;;;;13.13;6.70;;;7.40;75.70;;;;;;5034781;28;20472;-81
2023/04/20 06:55:46;;;;;;;10.90;5.40;;;7.40;76.50;;;;;;5035238;28;20451;-82
2023/04/20 06:58:14;;;;;;;13.67;6.53;;;7.40;74.10;;;;;;5035046;28;20452;-81
2023/04/20 07:00:41;;;;;;;11.60;6.30;;;7.40;75.70;;;;;;5034437;28;20484;-81
2023/04/20 07:03:08;;;;;;;9.63;6.13;;;7.40;73.80;;;;;;5033772;28;20480;-81
2023/04/20 07:05:36;;;;;;;14.03;7.07;;;7.50;75.00;;;;;;5033677;28;20915;-81
2023/04/20 07:08:04;;;;;;;14.03;6.43;;;7.50;75.00;;;;;;5016209;28;20463;-81
2023/04/20 07:10:31;;;;;;;11.23;7.07;;;7.50;75.80;;;;;;5033747;28;20484;-81
2023/04/20 07:12:59;;;;;;;7.60;3.97;;;7.50;75.80;;;;;;5033812;28;21202;-81
2023/04/20 07:15:27;;;;;;;10.37;6.40;;;7.50;75.80;;;;;;5034265;28;20452;-81
2023/04/20 07:17:54;;;;;;;7.80;4.87;;;7.60;75.90;;;;;;5033671;28;20467;-81
2023/04/20 07:20:21;;;;;;;7.30;4.73;;;7.60;74.30;;;;;;5034691;28;20452;-82
2023/04/20 07:22:48;;;;;;;7.20;3.40;;;7.60;75.00;;;;;;5034506;28;21070;-82
2023/04/20 07:25:16;;;;;;;8.13;4.80;;;7.60;73.10;;;;;;5034530;28;20462;-82
2023/04/20 07:27:43;;;;;;;9.27;5.90;;;7.70;74.40;;;;;;5032788;28;20448;-82
2023/04/20 07:30:11;;;;;;;6.67;4.10;;;7.80;74.30;;;;;;5032975;28;20865;-82
2023/04/20 07:32:41;;;;;;;7.37;3.90;;;7.90;75.20;;;;;;5041461;28;20475;-82
2023/04/20 07:35:08;;;;;;;8.50;5.50;;;8.10;76.40;;;;;;5054585;28;20930;-81
2023/04/20 07:37:35;;;;;;;6.83;4.57;;;8.30;74.70;;;;;;5054068;28;20451;-81
2023/04/20 07:40:05;;;;;;;6.57;3.63;;;8.40;73.70;;;;;;5053607;28;20455;-82
2023/04/20 07:42:33;;;;;;;7.40;4.47;;;8.30;71.60;;;;;;5053591;28;20461;-81
2023/04/20 07:44:59;;;;;;;9.10;4.07;;;8.30;73.20;;;;;;5053712;28;20470;-81
2023/04/20 07:47:27;;;;;;;8.00;4.50;;;8.10;71.50;;;;;;5054082;28;20451;-82
2023/04/20 07:49:56;;;;;;;6.73;4.37;;;8.10;73.20;;;;;;5054655;28;20455;-81
2023/04/20 07:52:23;;;;;;;8.83;4.93;;;8.00;74.00;;;;;;5054543;28;20471;-81
2023/04/20 07:54:52;;;;;;;9.73;5.07;;;8.00;74.80;;;;;;5054239;28;20557;-81
2023/04/20 07:57:19;;;;;;;7.03;3.80;;;8.20;76.40;;;;;;5053551;28;20487;-81
2023/04/20 07:59:48;;;;;;;6.07;3.30;;;8.40;74.20;;;;;;5053831;28;20451;-81
2023/04/20 08:02:16;;;;;;;9.40;4.90;;;8.50;72.70;;;;;;5054106;28;20455;-81
2023/04/20 08:04:47;;;;;;;9.37;4.70;;;8.50;72.70;;;;;;5053704;28;20541;-81
2023/04/20 08:07:15;;;;;;;10.07;5.57;;;8.60;73.60;;;;;;5052803;28;20955;-81
2023/04/20 08:09:42;;;;;;;9.87;4.20;;;8.60;71.70;;;;;;5054215;28;20262;-82
2023/04/20 08:12:10;;;;;;;13.80;4.17;;;8.50;72.10;;;;;;5052767;28;20490;-81
2023/04/20 08:14:40;;;;;;;7.80;4.83;;;8.40;70.80;;;;;;5052445;28;20529;-81
2023/04/20 08:17:12;;;;;;;9.43;4.30;;;8.50;73.40;;;;;;5053443;28;20463;-81
2023/04/20 08:19:40;;;;;;;8.03;5.47;;;8.50;72.90;;;;;;5053847;28;20462;-81
2023/04/20 08:22:06;;;;;;;10.27;4.20;;;8.60;72.60;;;;;;5051677;28;20448;-81
2023/04/20 08:24:35;;;;;;;7.90;4.80;;;8.60;72.00;;;;;;5053359;28;20999;-81
2023/04/20 08:27:02;;;;;;;7.60;3.97;;;8.60;70.20;;;;;;5053530;28;20448;-81
2023/04/20 08:29:29;;;;;;;7.17;4.00;;;8.80;70.20;;;;;;5052528;28;20466;-81
2023/04/20 08:31:56;;;;;;;5.93;3.33;;;9.00;70.50;;;;;;5053542;28;20479;-81
2023/04/20 08:34:23;;;;;;;11.53;4.57;;;9.10;69.30;;;;;;5052094;28;20476;-81
2023/04/20 08:36:50;;;;;;;7.53;4.03;;;9.20;68.20;;;;;;5053502;28;20451;-80
2023/04/20 08:39:20;;;;;;;7.20;3.87;;;9.20;68.00;;;;;;5052030;28;20451;-81
2023/04/20 08:41:52;;;;;;;8.57;4.57;;;9.50;66.10;;;;;;5053839;28;20451;-81
2023/04/20 08:44:19;;;;;;;7.07;3.57;;;9.60;65.20;;;;;;5052496;28;20854;-81
2023/04/20 08:46:50;;;;;;;12.37;5.40;;;9.70;66.50;;;;;;5052580;28;20462;-81
2023/04/20 08:49:18;;;;;;;7.57;4.87;;;9.70;64.50;;;;;;5053208;28;20463;-81
2023/04/20 08:51:47;;;;;;;9.20;3.80;;;9.50;65.60;;;;;;5053349;28;20544;-81
2023/04/20 08:54:14;;;;;;;7.20;3.53;;;9.40;67.60;;;;;;5053011;28;20562;-81
2023/04/20 08:56:43;;;;;;;9.33;4.43;;;9.30;64.60;;;;;;5052973;28;20455;-80
2023/04/20 08:59:15;;;;;;;8.33;4.63;;;9.10;65.80;;;;;;5053072;28;20831;-81
2023/04/20 09:01:43;;;;;;;8.17;4.67;;;9.00;68.30;;;;;;5051041;28;20468;-81
2023/04/20 09:04:19;;;;;;;7.27;3.80;;;8.90;67.30;;;;;;5051093;28;20483;-81
2023/04/20 09:06:49;;;;;;;8.00;4.40;;;8.70;67.80;;;;;;5050101;28;20455;-81
2023/04/20 09:09:17;;;;;;;6.30;3.50;;;8.70;70.00;;;;;;5051330;28;20451;-81
2023/04/20 09:11:45;;;;;;;8.50;4.37;;;8.70;68.90;;;;;;5052332;28;20467;-81
2023/04/20 09:14:19;;;;;;;6.87;3.57;;;8.80;69.80;;;;;;5052716;28;21118;-81
2023/04/20 09:16:52;;;;;;;7.07;4.00;;;8.80;68.60;;;;;;5052869;28;20867;-81
2023/04/20 09:19:23;;;;;;;4.93;2.13;;;9.00;69.10;;;;;;5052689;28;20464;-81
2023/04/20 09:21:52;;;;;;;6.47;3.27;;;9.00;68.50;;;;;;5052702;28;20452;-81
2023/04/20 09:24:20;;;;;;;7.70;4.30;;;9.10;67.50;;;;;;5052439;28;20467;-82
2023/04/20 09:26:48;;;;;;;6.60;3.80;;;9.10;65.90;;;;;;5052693;28;20518;-81
2023/04/20 09:29:22;;;;;;;8.73;4.23;;;9.00;66.00;;;;;;5051358;28;20888;-81
2023/04/20 09:31:49;;;;;;;8.70;5.17;;;9.10;66.80;;;;;;5052181;28;20477;-81
2023/04/20 09:34:18;;;;;;;11.90;6.10;;;9.20;67.20;;;;;;5050870;28;20475;-81
2023/04/20 09:36:46;;;;;;;12.33;6.33;;;9.10;67.60;;;;;;5052311;28;20482;-81
2023/04/20 09:39:14;;;;;;;9.33;5.03;;;9.30;69.50;;;;;;5051962;28;20459;-81
2023/04/20 09:41:42;;;;;;;6.97;3.97;;;9.80;69.50;;;;;;5052193;28;20457;-81
2023/04/20 09:44:10;;;;;;;6.57;3.30;;;9.80;66.90;;;;;;5052022;28;20478;-81
2023/04/20 09:46:40;;;;;;;6.53;2.97;;;10.30;63.30;;;;;;5051694;28;20844;-81
2023/04/20 09:49:08;;;;;;;7.37;3.30;;;10.90;61.80;;;;;;5051952;28;20451;-81
2023/04/20 09:51:37;;;;;;;8.17;3.30;;;10.60;58.80;;;;;;5051862;28;20550;-81
2023/04/20 09:54:07;;;;;;;6.53;3.60;;;11.40;58.60;;;;;;5052268;28;20907;-81
2023/04/20 09:56:35;;;;;;;8.73;3.47;;;11.40;57.10;;;;;;5050772;28;20451;-81
2023/04/20 09:59:02;;;;;;;6.33;3.07;;;11.60;55.10;;;;;;5050758;28;20463;-81
2023/04/20 10:01:32;;;;;;;6.67;3.57;;;11.80;56.50;;;;;;5052057;28;20459;-81
2023/04/20 10:04:02;;;;;;;8.07;3.17;;;12.60;55.70;;;;;;5051397;28;20472;-81
2023/04/20 10:06:31;;;;;;;7.30;4.00;;;13.20;52.40;;;;;;5050278;28;20486;-81
2023/04/20 10:09:01;;;;;;;7.20;4.00;;;13.20;46.90;;;;;;5051468;28;20456;-81
2023/04/20 10:11:33;;;;;;;7.07;3.70;;;13.30;49.50;;;;;;5051658;28;20452;-81
2023/04/20 10:14:13;;;;;;;7.00;4.10;;;13.00;51.20;;;;;;5051555;28;21013;-81
2023/04/20 10:16:40;;;;;;;7.27;3.57;;;12.10;49.00;;;;;;5051708;28;20813;-81
2023/04/20 10:19:09;;;;;;;4.87;2.13;;;11.50;53.90;;;;;;5051109;28;20947;-81
2023/04/20 10:21:47;;;;;;;8.30;4.30;;;11.30;53.80;;;;;;5051645;28;20455;-80
2023/04/20 10:24:14;;;;;;;6.70;3.50;;;11.20;56.00;;;;;;5051804;28;20478;-81
2023/04/20 10:26:43;;;;;;;7.10;2.80;;;11.30;56.60;;;;;;5051279;28;20494;-81
2023/04/20 10:29:12;;;;;;;7.93;4.27;;;11.40;57.00;;;;;;5051529;28;20455;-81
2023/04/20 10:31:41;;;;;;;8.03;4.17;;;11.20;56.20;;;;;;5051649;28;20979;-81
2023/04/20 10:34:10;;;;;;;9.83;4.20;;;11.00;58.80;;;;;;5050817;28;20479;-81
2023/04/20 10:36:38;;;;;;;7.30;3.67;;;10.70;58.40;;;;;;5051432;28;20494;-81
2023/04/20 10:39:16;;;;;;;7.73;4.10;;;10.10;56.70;;;;;;5050467;28;20451;-80
2023/04/20 10:41:57;;;;;;;7.03;3.40;;;9.60;64.60;;;;;;5052093;28;20451;-81
2023/04/20 10:44:24;;;;;;;5.27;1.73;;;9.20;71.40;;;;;;5051467;28;20471;-81
2023/04/20 10:46:51;;;;;;;4.30;1.43;;;8.70;71.10;;;;;;5049790;28;20451;-81
2023/04/20 10:49:26;;;;;;;4.00;1.20;;;8.60;71.90;;;;;;5050316;28;20463;-81
2023/04/20 10:51:53;;;;;;;4.50;1.70;;;8.50;74.00;;;;;;5051333;28;20454;-80
2023/04/20 10:54:20;;;;;;;4.97;1.93;;;9.00;77.10;;;;;;5051530;28;20586;-81
2023/04/20 10:56:51;;;;;;;4.90;1.73;;;9.40;69.10;;;;;;5049930;28;20457;-81
2023/04/20 10:59:20;;;;;;;4.80;2.03;;;10.10;67.40;;;;;;5051986;28;20455;-82
2023/04/20 11:01:50;;;;;;;5.00;2.10;;;11.10;66.30;;;;;;5050963;28;20462;-82
2023/04/20 11:04:17;;;;;;;6.10;1.90;;;11.60;62.40;;;;;;5049575;28;20483;-83
2023/04/20 11:06:50;;;;;;;5.10;2.20;;;12.60;63.30;;;;;;5048278;28;20460;-83
2023/04/20 11:09:19;;;;;;;4.40;1.70;;;13.70;58.00;;;;;;5050159;28;20498;-83
2023/04/20 11:11:46;;;;;;;5.10;1.90;;;14.70;57.60;;;;;;5050546;28;20451;-84
2023/04/20 11:14:14;;;;;;;5.27;1.90;;;15.30;51.90;;;;;;5051022;28;20484;-84
2023/04/20 11:17:00;;;;;;;6.87;1.93;;;15.00;48.60;;;;;;5049691;28;20459;-83
2023/04/20 11:19:29;;;;;;;4.97;2.07;;;14.00;50.80;;;;;;5049637;28;20882;-82
2023/04/20 11:22:00;;;;;;;5.40;2.00;;;13.40;52.00;;;;;;5051361;28;20455;-83
2023/04/20 11:24:29;;;;;;;5.30;2.03;;;12.80;50.70;;;;;;5049489;28;20830;-79
2023/04/20 11:26:58;;;;;;;6.27;2.67;;;12.00;60.00;;;;;;5051370;28;20458;-82
2023/04/20 11:29:30;;;;;;;5.70;2.00;;;11.30;67.50;;;;;;5051115;28;20451;-82
2023/04/20 11:31:57;;;;;;;5.27;2.07;;;10.80;74.70;;;;;;5053954;28;20447;-82
2023/04/20 11:34:24;;;;;;;6.83;2.27;;;10.90;71.60;;;;;;5054735;28;20475;-81
2023/04/20 11:36:51;;;;;;;5.03;2.37;;;11.70;67.20;;;;;;5054724;28;20989;-81
2023/04/20 11:39:28;;;;;;;5.63;2.43;;;12.20;72.30;;;;;;5053689;28;20542;-81
2023/04/20 11:41:56;;;;;;;5.40;2.20;;;12.10;67.70;;;;;;5053575;28;20500;-80
2023/04/20 11:44:24;;;;;;;4.37;1.60;;;12.20;72.70;;;;;;5053096;28;20478;-80
2023/04/20 11:46:53;;;;;;;6.33;2.07;;;12.40;64.90;;;;;;5054564;28;20491;-81
2023/04/20 11:49:20;;;;;;;4.73;1.63;;;12.40;64.60;;;;;;5054747;28;20538;-80
2023/04/20 11:51:47;;;;;;;4.33;1.30;;;12.30;63.10;;;;;;5054543;28;20455;-80
2023/04/20 11:54:14;;;;;;;4.40;1.10;;;12.70;66.70;;;;;;5054545;28;20479;-81
2023/04/20 11:56:43;;;;;;;4.80;1.33;;;13.70;64.40;;;;;;5054694;28;20866;-81
2023/04/20 11:59:11;;;;;;;4.30;1.00;;;14.80;59.40;;;;;;5054702;28;20491;-83
2023/04/20 12:01:39;;;;;;;3.93;0.93;;;15.90;58.00;;;;;;5053293;28;20449;-83
2023/04/20 12:04:06;;;;;;;4.23;1.10;;;16.20;48.00;;;;;;5054103;28;20516;-84
2023/04/20 12:06:34;;;;;;;4.97;1.70;;;15.50;43.70;;;;;;5055478;28;20960;-84
2023/04/20 12:09:01;;;;;;;4.50;1.20;;;14.70;44.40;;;;;;5053849;28;20997;-83
2023/04/20 12:11:31;;;;;;;4.73;1.47;;;13.70;44.00;;;;;;5053830;28;20968;-83
2023/04/20 12:14:03;;;;;;;5.03;1.50;;;13.60;51.50;;;;;;5052480;28;20481;-83
2023/04/20 12:16:30;;;;;;;4.73;1.53;;;13.50;44.30;;;;;;5053974;28;20809;-83
2023/04/20 12:18:57;;;;;;;4.73;1.67;;;13.20;46.90;;;;;;5052275;28;20947;-83
2023/04/20 12:21:25;;;;;;;5.63;1.93;;;13.00;50.40;;;;;;5053892;28;20517;-83
2023/04/20 12:23:56;;;;;;;4.50;1.40;;;13.30;51.40;;;;;;5053882;28;20898;-83
2023/04/20 12:26:23;;;;;;;4.97;1.43;;;13.50;47.10;;;;;;5052501;28;20520;-83
2023/04/20 12:28:50;;;;;;;4.73;1.27;;;14.30;45.20;;;;;;5053680;28;20459;-83
2023/04/20 12:31:18;;;;;;;5.43;1.33;;;14.30;40.60;;;;;;5053411;28;20452;-83
2023/04/20 12:33:45;;;;;;;5.13;1.50;;;14.10;41.60;;;;;;5053033;28;20475;-82
2023/04/20 12:36:12;;;;;;;4.80;1.80;;;14.90;42.20;;;;;;5053311;28;20451;-83
2023/04/20 12:38:39;;;;;;;6.30;2.17;;;15.80;32.70;;;;;;5053487;28;20454;-83
2023/04/20 12:41:06;;;;;;;5.77;2.50;;;16.50;29.30;;;;;;5053776;28;20451;-83
2023/04/20 12:43:34;;;;;;;5.80;2.17;;;17.60;23.70;;;;;;5052159;28;20843;-83
2023/04/20 12:46:00;;;;;;;5.17;2.13;;;17.70;22.60;;;;;;5052316;28;20459;-83
2023/04/20 12:48:29;;;;;;;5.43;2.50;;;17.10;23.90;;;;;;5053308;28;20458;-83
2023/04/20 12:50:55;;;;;;;6.93;3.30;;;16.40;27.00;;;;;;5053777;28;20549;-83
2023/04/20 12:53:22;;;;;;;7.87;2.87;;;17.10;22.50;;;;;;5053207;28;20483;-83
2023/04/20 12:55:50;;;;;;;7.20;3.17;;;18.50;23.40;;;;;;5052979;28;20494;-83
2023/04/20 12:58:17;;;;;;;7.00;3.67;;;18.70;17.30;;;;;;5053210;28;20460;-83
2023/04/20 13:00:45;;;;;;;7.30;3.57;;;19.10;13.20;;;;;;5052947;28;20450;-83
2023/04/20 13:03:12;;;;;;;7.97;3.30;;;18.70;13.40;;;;;;5050481;28;20468;-82
2023/04/20 13:05:41;;;;;;;5.67;2.70;;;18.60;14.70;;;;;;5050529;28;20967;-83